createdAt,value
2022-09-14T00:45:13.285Z,25.50
2022-09-14T00:47:43.351Z,25.40
2022-09-14T00:50:12.290Z,25.40
2022-09-14T00:52:44.950Z,25.50
2022-09-14T00:55:17.928Z,25.50
2022-09-14T00:57:50.434Z,25.40
2022-09-14T01:00:22.906Z,25.40
2022-09-14T01:45:18.980Z,25.50
2022-09-14T01:47:52.281Z,25.40
2022-09-14T01:50:26.905Z,25.50
2022-09-14T01:53:00.904Z,25.40
2022-09-14T01:55:33.998Z,25.40
2022-09-14T01:58:08.313Z,25.40
2022-09-14T02:46:07.848Z,25.60
2022-09-14T02:48:43.161Z,25.30
2022-09-14T02:51:20.998Z,25.30
2022-09-14T02:53:56.649Z,25.30
2022-09-14T02:56:25.744Z,25.30
2022-09-14T02:58:54.178Z,25.30
2022-09-14T03:48:07.207Z,25.60
2022-09-14T03:50:35.555Z,25.30
2022-09-14T03:53:04.728Z,25.30
2022-09-14T03:55:33.015Z,25.40
2022-09-14T03:58:01.389Z,25.30
2022-09-14T04:01:04.680Z,25.60
2022-09-14T04:03:34.912Z,25.30
2022-09-14T04:06:05.325Z,25.30
2022-09-14T04:08:34.648Z,25.30
2022-09-14T04:11:07.946Z,25.30
2022-09-14T04:13:36.278Z,25.30
2022-09-14T04:30:38.791Z,25.40
2022-09-14T04:33:07.054Z,25.50
2022-09-14T04:35:35.186Z,25.50
2022-09-14T04:38:03.319Z,25.60
2022-09-14T04:40:31.533Z,25.50
2022-09-14T04:42:59.875Z,25.50
2022-09-14T04:45:28.015Z,25.50
2022-09-14T04:47:57.573Z,25.50
2022-09-14T04:50:26.229Z,25.50
2022-09-14T04:52:54.411Z,25.50
2022-09-14T04:55:24.182Z,25.40
2022-09-14T04:57:52.532Z,25.40
2022-09-14T05:00:21.213Z,25.40
2022-09-14T05:02:49.607Z,25.40
2022-09-14T05:05:19.293Z,25.40
2022-09-14T05:07:47.481Z,25.40
2022-09-14T05:10:15.886Z,25.40
2022-09-14T05:12:44.098Z,25.50
2022-09-14T05:15:12.592Z,25.40
2022-09-14T05:17:40.872Z,25.50
2022-09-14T05:20:10.781Z,25.40
2022-09-14T05:22:40.423Z,25.40
2022-09-14T05:25:09.557Z,25.40
2022-09-14T05:27:37.810Z,25.40
2022-09-14T05:30:07.468Z,25.40
2022-09-14T05:32:35.569Z,25.40
2022-09-14T05:35:03.890Z,25.40
2022-09-14T05:37:32.229Z,25.40
2022-09-14T05:40:01.846Z,25.40
2022-09-14T05:42:30.116Z,25.30
2022-09-14T05:44:58.529Z,25.30
2022-09-14T05:47:26.689Z,25.20
2022-09-14T05:49:54.833Z,25.30
2022-09-14T05:52:22.918Z,25.30
2022-09-14T05:54:51.238Z,25.30
2022-09-14T05:57:20.810Z,25.30
2022-09-14T05:59:48.895Z,25.30
2022-09-14T06:03:37.272Z,25.30
2022-09-14T06:06:07.748Z,25.30
2022-09-14T06:08:37.119Z,25.40
2022-09-14T06:11:07.417Z,25.40
2022-09-14T06:13:38.191Z,25.50
2022-09-14T06:16:09.332Z,25.50
2022-09-14T06:18:40.630Z,25.50
2022-09-14T06:21:11.274Z,25.50
2022-09-14T06:23:40.173Z,25.50
2022-09-14T06:26:09.688Z,25.50
2022-09-14T06:28:40.127Z,25.50
2022-09-14T06:31:10.061Z,25.40
2022-09-14T06:33:39.142Z,25.40
2022-09-14T06:36:12.597Z,25.40
2022-09-14T06:38:42.500Z,25.40
2022-09-14T06:41:14.765Z,25.40
2022-09-14T06:43:45.141Z,25.40
2022-09-14T06:46:15.709Z,25.40
2022-09-14T06:48:47.072Z,25.30
2022-09-14T06:51:18.542Z,25.40
2022-09-14T06:53:48.841Z,25.50
2022-09-14T06:56:21.988Z,25.30
2022-09-14T06:58:53.187Z,25.40
2022-09-14T07:01:23.053Z,25.30
2022-09-14T07:03:52.452Z,25.60
2022-09-14T07:06:23.467Z,25.40
2022-09-14T07:08:53.614Z,25.40
2022-09-14T07:11:25.640Z,25.40
2022-09-14T07:13:58.720Z,25.40
2022-09-14T07:16:28.238Z,25.40
2022-09-14T07:18:58.485Z,25.40
2022-09-14T07:21:28.083Z,25.40
2022-09-14T07:23:56.905Z,25.40
2022-09-14T07:26:27.616Z,25.40
2022-09-14T07:29:01.916Z,25.50
2022-09-14T07:31:33.609Z,25.50
2022-09-14T07:34:04.253Z,25.50
2022-09-14T07:36:36.525Z,25.50
2022-09-14T07:39:08.124Z,25.60
2022-09-14T07:41:37.430Z,25.50
2022-09-14T07:44:09.523Z,25.50
2022-09-14T07:46:44.056Z,25.50
2022-09-14T07:49:13.268Z,25.50
2022-09-14T07:51:41.725Z,25.60
2022-09-14T07:54:14.423Z,25.40
2022-09-14T07:56:43.442Z,25.30
2022-09-14T08:02:03.949Z,25.30
2022-09-14T08:04:32.094Z,25.30
2022-09-14T08:07:00.839Z,25.30
2022-09-14T08:09:29.500Z,25.30
2022-09-14T08:11:57.909Z,25.30
2022-09-14T08:14:27.773Z,25.30
2022-09-14T08:16:56.095Z,25.60
2022-09-14T08:19:24.434Z,25.30
2022-09-14T08:21:52.590Z,25.30
2022-09-14T08:24:22.934Z,25.30
2022-09-14T08:26:51.401Z,25.30
2022-09-14T08:29:21.378Z,25.30
2022-09-14T08:31:52.099Z,25.30
2022-09-14T08:34:21.344Z,25.30
2022-09-14T08:36:51.006Z,25.30
2022-09-14T08:39:19.492Z,25.30
2022-09-14T08:41:55.087Z,25.30
2022-09-14T08:44:29.078Z,25.30
2022-09-14T08:47:04.028Z,25.30
2022-09-14T08:49:46.953Z,25.30
2022-09-14T08:52:23.240Z,25.30
2022-09-14T08:54:56.333Z,25.30
2022-09-14T08:57:34.702Z,25.30
2022-09-14T09:00:11.397Z,25.30
2022-09-14T09:03:28.410Z,25.30
2022-09-14T09:06:07.542Z,25.30
2022-09-14T09:08:47.968Z,25.30
2022-09-14T09:11:20.562Z,25.30
2022-09-14T09:13:51.832Z,25.30
2022-09-14T09:16:25.080Z,25.30
2022-09-14T09:18:59.864Z,25.30
2022-09-14T09:21:34.658Z,25.40
2022-09-14T09:24:18.492Z,25.30
2022-09-14T09:26:46.748Z,25.30
2022-09-14T09:29:15.003Z,25.30
2022-09-14T09:32:01.723Z,25.30
2022-09-14T09:34:51.918Z,25.30
2022-09-14T09:37:42.990Z,25.30
2022-09-14T09:40:20.811Z,25.30
2022-09-14T09:43:09.966Z,25.30
2022-09-14T09:45:57.552Z,25.30
2022-09-14T09:48:30.861Z,25.30
2022-09-14T09:51:10.429Z,25.30
2022-09-14T09:53:47.433Z,25.30
2022-09-14T09:56:21.357Z,25.30
2022-09-14T09:58:51.781Z,25.30
2022-09-14T10:01:24.155Z,25.20
2022-09-14T10:04:17.949Z,25.20
2022-09-14T10:06:50.464Z,25.30
2022-09-14T10:09:21.365Z,25.20
2022-09-14T10:11:58.259Z,25.40
2022-09-14T10:14:31.996Z,25.20
2022-09-14T10:17:09.235Z,25.30
2022-09-14T10:19:38.320Z,25.30
2022-09-14T10:22:27.809Z,25.30
2022-09-14T10:25:00.000Z,25.30
2022-09-14T10:27:41.776Z,25.30
2022-09-14T10:30:18.307Z,25.30
2022-09-14T10:33:00.251Z,25.30
2022-09-14T10:35:47.370Z,25.30
2022-09-14T10:38:32.665Z,25.30
2022-09-14T10:41:24.481Z,25.30
2022-09-14T10:44:39.970Z,25.30
2022-09-14T10:47:34.207Z,25.30
2022-09-14T10:50:19.533Z,25.30
2022-09-14T10:52:58.826Z,25.30
2022-09-14T10:55:42.240Z,25.30
2022-09-14T10:58:35.344Z,25.30
2022-09-14T11:01:20.181Z,25.40
2022-09-14T11:04:21.612Z,25.40
2022-09-14T11:07:01.941Z,25.40
2022-09-14T11:09:35.778Z,25.40
2022-09-14T11:12:14.220Z,25.40
2022-09-14T11:14:59.649Z,25.40
2022-09-14T11:17:47.713Z,25.40
2022-09-14T11:20:28.321Z,25.40
2022-09-14T11:23:11.794Z,25.40
2022-09-14T11:25:47.327Z,25.40
2022-09-14T11:28:21.648Z,25.40
2022-09-14T11:30:55.702Z,25.40
2022-09-14T11:33:31.354Z,25.40
2022-09-14T11:36:05.109Z,25.40
2022-09-14T11:38:46.358Z,25.40
2022-09-14T11:41:25.896Z,25.40
2022-09-14T11:44:01.005Z,25.40
2022-09-14T11:46:34.919Z,25.40
2022-09-14T11:49:14.936Z,25.30
2022-09-14T11:51:50.418Z,25.30
2022-09-14T11:54:21.359Z,25.30
2022-09-14T11:56:51.637Z,25.30
2022-09-14T11:59:55.682Z,25.30
2022-09-14T12:03:14.446Z,25.30
2022-09-14T12:05:44.815Z,25.30
2022-09-14T12:08:41.241Z,25.30
2022-09-14T12:11:34.649Z,25.30
2022-09-14T12:14:34.377Z,25.30
2022-09-14T12:17:38.424Z,25.30
2022-09-14T12:20:44.193Z,25.30
2022-09-14T12:23:42.986Z,25.30
2022-09-14T12:26:34.837Z,25.40
2022-09-14T12:29:28.741Z,25.30
2022-09-14T12:32:05.599Z,25.30
2022-09-14T12:34:35.212Z,25.30
2022-09-14T12:37:21.376Z,25.30
2022-09-14T12:40:36.702Z,25.30
2022-09-14T12:43:59.073Z,25.30
2022-09-14T12:46:41.424Z,25.30
2022-09-14T12:49:37.993Z,25.30
2022-09-14T12:52:29.734Z,25.30
2022-09-14T12:55:17.600Z,25.30
2022-09-14T12:57:52.071Z,25.30
2022-09-14T13:00:22.643Z,25.30
2022-09-14T13:03:23.471Z,25.30
2022-09-14T13:05:54.275Z,25.30
2022-09-14T13:08:25.665Z,25.30
2022-09-14T13:10:54.458Z,25.30
2022-09-14T13:13:26.346Z,25.30
2022-09-14T13:15:58.047Z,25.30
2022-09-14T13:18:35.397Z,25.30
2022-09-14T13:21:19.014Z,25.30
2022-09-14T13:23:47.282Z,25.30
2022-09-14T13:26:21.286Z,25.30
2022-09-14T13:28:52.710Z,25.30
2022-09-14T13:31:29.035Z,25.30
2022-09-14T13:33:57.591Z,25.30
2022-09-14T13:36:30.857Z,25.30
2022-09-14T13:39:01.888Z,25.40
2022-09-14T13:41:32.072Z,25.30
2022-09-14T13:44:01.779Z,25.30
2022-09-14T13:46:30.340Z,25.30
2022-09-14T13:48:58.740Z,25.30
2022-09-14T13:51:29.805Z,25.30
2022-09-14T13:54:00.108Z,25.30
2022-09-14T13:56:31.974Z,25.30
2022-09-14T13:59:22.661Z,25.30
2022-09-14T14:01:59.571Z,25.30
2022-09-14T14:04:35.318Z,25.30
2022-09-14T14:07:15.110Z,25.30
2022-09-14T14:09:47.911Z,25.30
2022-09-14T14:12:27.390Z,25.30
2022-09-14T14:15:01.871Z,25.30
2022-09-14T14:17:39.247Z,25.30
2022-09-14T14:20:33.127Z,25.30
2022-09-14T14:23:21.186Z,25.30
2022-09-14T14:25:54.275Z,25.30
2022-09-14T14:28:26.429Z,25.30
2022-09-14T14:30:56.068Z,25.30
2022-09-14T14:33:24.996Z,25.30
2022-09-14T14:35:56.452Z,25.30
2022-09-14T14:38:26.405Z,25.30
2022-09-14T14:40:57.403Z,25.30
2022-09-14T14:43:28.248Z,25.30
2022-09-14T14:45:59.061Z,25.30
2022-09-14T14:48:27.778Z,25.30
2022-09-14T14:50:56.981Z,25.30
2022-09-14T14:53:27.489Z,25.30
2022-09-14T14:55:55.745Z,25.30
2022-09-14T14:58:25.062Z,25.30
2022-09-14T15:00:53.218Z,25.30
2022-09-14T15:03:21.762Z,25.30
2022-09-14T15:05:50.717Z,25.30
2022-09-14T15:08:20.791Z,25.30
2022-09-14T15:10:56.126Z,25.30
2022-09-14T15:13:24.303Z,25.30
2022-09-14T15:15:52.475Z,25.30
2022-09-14T15:18:20.644Z,25.30
2022-09-14T15:20:48.921Z,25.30
2022-09-14T15:23:17.212Z,25.40
2022-09-14T15:25:45.447Z,25.30
2022-09-14T15:28:15.088Z,25.30
2022-09-14T15:31:36.865Z,25.30
2022-09-14T15:34:05.256Z,25.30
2022-09-14T15:36:38.871Z,25.30
2022-09-14T15:39:09.481Z,25.30
2022-09-14T15:41:37.764Z,25.30
2022-09-14T15:44:08.200Z,25.30
2022-09-14T15:46:38.733Z,25.30
2022-09-14T15:49:09.035Z,25.40
2022-09-14T15:51:37.176Z,25.30
2022-09-14T15:54:06.350Z,25.40
2022-09-14T15:56:34.591Z,25.40
2022-09-14T15:59:03.190Z,25.40
2022-09-14T16:01:33.955Z,25.30
2022-09-14T16:04:08.291Z,25.40
2022-09-14T16:06:40.204Z,25.40
2022-09-14T16:09:11.320Z,25.30
2022-09-14T16:11:40.694Z,25.40
2022-09-14T16:14:11.219Z,25.40
2022-09-14T16:16:41.698Z,25.40
2022-09-14T16:19:12.771Z,25.40
2022-09-14T16:21:42.162Z,25.40
2022-09-14T16:24:15.079Z,25.40
2022-09-14T16:26:44.112Z,25.40
2022-09-14T16:29:14.744Z,25.40
2022-09-14T16:31:47.351Z,25.40
2022-09-14T16:34:19.949Z,25.40
2022-09-14T16:36:49.209Z,25.40
2022-09-14T16:39:20.679Z,25.50
2022-09-14T16:41:49.547Z,25.50
2022-09-14T16:44:21.945Z,25.60
2022-09-14T16:46:52.271Z,25.60
2022-09-14T16:49:24.973Z,25.80
2022-09-14T16:51:56.032Z,25.80
2022-09-14T16:54:26.425Z,25.90
2022-09-14T16:56:57.147Z,26.00
2022-09-14T16:59:25.837Z,26.10
2022-09-14T17:01:55.790Z,26.10
2022-09-14T17:04:25.692Z,26.20
2022-09-14T17:06:56.289Z,26.20
2022-09-14T17:09:28.695Z,26.40
2022-09-14T17:11:58.807Z,26.40
2022-09-14T17:14:29.379Z,26.40
2022-09-14T17:16:59.758Z,26.40
2022-09-14T17:19:28.340Z,26.30
2022-09-14T17:21:56.956Z,26.20
2022-09-14T17:24:25.948Z,26.20
2022-09-14T17:26:54.229Z,26.10
2022-09-14T17:29:22.541Z,26.10
2022-09-14T17:31:50.828Z,26.00
2022-09-14T17:34:20.426Z,26.00
2022-09-14T17:36:48.658Z,26.00
2022-09-14T17:39:16.967Z,25.90
2022-09-14T17:41:45.168Z,25.90
2022-09-14T17:44:16.029Z,25.90
2022-09-14T17:46:52.181Z,25.90
2022-09-14T17:49:23.296Z,25.90
2022-09-14T17:51:52.349Z,25.90
2022-09-14T17:54:21.312Z,25.90
2022-09-14T17:56:49.871Z,25.90
2022-09-14T17:59:21.589Z,25.90
2022-09-14T18:01:50.204Z,25.90
2022-09-14T18:04:19.311Z,25.90
2022-09-14T18:06:50.655Z,25.90
2022-09-14T18:09:24.925Z,25.90
2022-09-14T18:11:57.197Z,25.90
2022-09-14T18:14:26.273Z,25.90
2022-09-14T18:16:54.540Z,25.90
2022-09-14T18:19:23.154Z,25.90
2022-09-14T18:21:53.258Z,25.90
2022-09-14T18:24:22.116Z,25.90
2022-09-14T18:26:50.894Z,25.90
2022-09-14T18:29:23.183Z,25.90
2022-09-14T18:31:52.173Z,25.90
2022-09-14T18:34:21.903Z,25.90
2022-09-14T18:36:53.386Z,25.90
2022-09-14T18:39:21.700Z,25.90
2022-09-14T18:41:53.746Z,25.90
2022-09-14T18:44:22.375Z,25.90
2022-09-14T18:46:51.648Z,25.90
2022-09-14T18:49:20.067Z,25.90
2022-09-14T18:51:48.311Z,25.90
2022-09-14T18:54:18.369Z,25.90
2022-09-14T18:56:46.751Z,25.90
2022-09-14T18:59:16.249Z,25.90
2022-09-14T19:01:44.791Z,25.90
2022-09-14T19:04:15.508Z,25.80
2022-09-14T19:06:44.628Z,25.90
2022-09-14T19:09:13.232Z,25.90
2022-09-14T19:11:43.175Z,25.90
2022-09-14T19:14:13.830Z,25.90
2022-09-14T19:16:42.891Z,25.80
2022-09-14T19:19:15.533Z,25.80
2022-09-14T19:21:44.648Z,25.80
2022-09-14T19:24:15.637Z,25.80
2022-09-14T19:26:48.453Z,25.80
2022-09-14T19:29:21.088Z,25.80
2022-09-14T19:31:51.706Z,25.80
2022-09-14T19:34:21.358Z,25.80
2022-09-14T19:36:50.504Z,25.70
2022-09-14T19:39:18.786Z,25.70
2022-09-14T19:41:48.352Z,25.70
2022-09-14T19:44:17.191Z,25.70
2022-09-14T19:46:45.891Z,25.70
2022-09-14T19:49:17.267Z,25.70
2022-09-14T19:51:46.051Z,25.70
2022-09-14T19:54:14.665Z,25.70
2022-09-14T19:56:43.221Z,25.70
2022-09-14T19:59:12.993Z,25.70
2022-09-14T20:01:42.317Z,25.70
2022-09-14T20:04:11.495Z,25.70
2022-09-14T20:06:42.795Z,25.70
2022-09-14T20:09:14.305Z,25.70
2022-09-14T20:11:44.072Z,25.70
2022-09-14T20:14:16.013Z,25.70
2022-09-14T20:16:46.997Z,25.70
2022-09-14T20:19:17.667Z,25.70
2022-09-14T20:21:47.623Z,25.70
2022-09-14T20:24:19.609Z,25.70
2022-09-14T20:26:49.690Z,25.70
2022-09-14T20:29:21.586Z,25.70
2022-09-14T20:31:51.020Z,25.70
2022-09-14T20:34:21.667Z,25.70
2022-09-14T20:36:50.917Z,25.70
2022-09-14T20:39:20.332Z,25.70
2022-09-14T20:41:48.645Z,25.70
2022-09-14T20:44:22.121Z,25.70
2022-09-14T20:46:51.913Z,25.70
2022-09-14T20:49:22.827Z,25.70
2022-09-14T20:51:52.565Z,25.70
2022-09-14T20:54:21.395Z,25.70
2022-09-14T20:56:49.633Z,25.70
2022-09-14T20:59:22.103Z,25.70
2022-09-14T21:01:52.518Z,26.10
2022-09-14T21:09:15.594Z,25.70
2022-09-14T21:11:45.756Z,25.70
2022-09-14T21:14:15.361Z,25.80
2022-09-14T21:16:47.595Z,25.60
2022-09-14T21:19:23.506Z,25.60
2022-09-14T21:21:52.253Z,25.60
2022-09-14T21:24:22.912Z,25.60
2022-09-14T21:26:51.385Z,25.60
2022-09-14T21:29:23.924Z,25.50
2022-09-14T21:31:53.878Z,25.50
2022-09-14T21:34:22.214Z,25.50
2022-09-14T21:36:52.732Z,25.50
2022-09-14T21:39:23.996Z,25.50
2022-09-14T21:41:58.049Z,25.60
2022-09-14T21:44:30.885Z,25.60
2022-09-14T21:47:00.552Z,25.60
2022-09-14T21:49:28.890Z,25.60
2022-09-14T21:51:57.286Z,25.60
2022-09-14T21:54:27.386Z,25.60
2022-09-14T21:56:55.883Z,25.60
2022-09-14T21:59:24.935Z,25.60
2022-09-14T22:01:53.728Z,25.60
2022-09-14T22:04:26.140Z,26.10
2022-09-14T22:06:55.026Z,25.70
2022-09-14T22:09:25.706Z,25.70
2022-09-14T22:11:54.180Z,25.70
2022-09-14T22:14:24.671Z,25.70
2022-09-14T22:16:53.887Z,25.70
2022-09-14T22:19:26.945Z,25.70
2022-09-14T22:21:56.605Z,25.70
2022-09-14T22:24:28.048Z,25.70
2022-09-14T22:26:57.409Z,25.70
2022-09-14T22:29:26.687Z,25.60
2022-09-14T22:31:55.285Z,25.60
2022-09-14T22:34:25.829Z,25.60
2022-09-14T22:36:54.012Z,25.60
2022-09-14T22:39:23.541Z,25.60
2022-09-14T22:41:51.992Z,25.60
2022-09-14T22:44:20.624Z,25.60
2022-09-14T22:46:49.125Z,25.60
2022-09-14T22:49:17.580Z,25.60
2022-09-14T22:51:47.588Z,25.60
2022-09-14T22:54:15.684Z,25.60
2022-09-14T22:56:43.895Z,25.60
2022-09-14T22:59:12.120Z,25.60
2022-09-14T23:45:54.642Z,25.40
2022-09-14T23:48:22.893Z,25.40
2022-09-14T23:50:58.820Z,25.40
2022-09-14T23:53:27.881Z,25.40
2022-09-14T23:55:56.542Z,25.40
2022-09-14T23:58:25.395Z,25.40
